Time;durP1;ratioP1;P1;durP2;ratioP2;P2;SDS_P1;SDS_P2;PMS_P1;PMS_P2;Temp;Humidity;BMP_temperature;BMP_pressure;BME280_temperature;BME280_humidity;BME280_pressure;Samples;Min_cycle;Max_cycle;Signal;HPM_P1;HPM_P2
2023/06/16 10:19:21;;;;;;;4.38;3.97;;;;;;;28.60;100.00;94562.84;5298253;22;20049;-74
2023/06/16 10:21:49;;;;;;;4.45;3.90;;;;;;;28.94;100.00;94572.84;5045294;28;20026;-76
2023/06/16 10:24:15;;;;;;;4.40;4.10;;;;;;;28.59;100.00;94562.03;5049071;28;20484;-75
2023/06/16 10:26:41;;;;;;;7.50;3.47;;;;;;;28.69;100.00;94490.75;5045170;28;20120;-75
2023/06/16 10:29:07;;;;;;;5.90;3.10;;;;;;;29.07;100.00;94639.09;5049761;28;20039;-75
2023/06/16 10:31:33;;;;;;;3.20;3.00;;;;;;;28.98;100.00;94703.09;5052237;28;20025;-75
2023/06/16 10:33:59;;;;;;;7.25;3.15;;;;;;;29.32;100.00;94756.47;5052795;28;20028;-75
2023/06/16 10:36:29;;;;;;;3.03;2.72;;;;;;;29.42;100.00;94699.50;5054570;28;20040;-75
2023/06/16 10:38:57;;;;;;;3.40;3.00;;;;;;;29.72;100.00;94738.22;5043141;28;20044;-77
2023/06/16 10:41:23;;;;;;;4.90;2.58;;;;;;;30.27;100.00;94815.81;5052016;28;20377;-77
2023/06/16 10:43:48;;;;;;;3.30;3.10;;;;;;;30.16;100.00;94850.38;5054583;28;20112;-77
2023/06/16 10:46:18;;;;;;;3.10;2.80;;;;;;;29.22;100.00;94822.41;5046630;28;20107;-74
2023/06/16 10:49:07;;;;;;;3.38;3.08;;;;;;;29.83;100.00;94793.16;5057034;28;20021;-74
2023/06/16 10:51:59;;;;;;;3.42;3.03;;;;;;;29.46;100.00;94819.00;5042787;28;20426;-74
2023/06/16 10:54:36;;;;;;;5.10;3.00;;;;;;;29.61;100.00;94788.22;5052366;28;20029;-74
2023/06/16 10:57:04;;;;;;;4.07;2.92;;;;;;;30.00;100.00;94724.09;5057036;28;20073;-75
2023/06/16 10:59:30;;;;;;;3.60;3.30;;;;;;;30.82;100.00;94783.91;5044118;28;20036;-75
2023/06/16 11:01:57;;;;;;;3.40;3.20;;;;;;;30.93;100.00;95847.84;5057127;28;20036;-75
2023/06/16 11:04:24;;;;;;;2.90;2.70;;;;;;;30.91;100.00;95843.78;5041877;28;20096;-74
2023/06/16 11:07:07;;;;;;;2.92;2.72;;;;;;;31.14;100.00;95839.72;5045650;28;20029;-73
2023/06/16 11:09:32;;;;;;;2.92;2.72;;;;;;;31.14;100.00;95835.09;5040333;28;20121;-73
2023/06/16 11:11:59;;;;;;;5.20;2.72;;;;;;;30.96;100.00;95833.72;5061772;28;20640;-73
2023/06/16 11:14:25;;;;;;;4.65;3.00;;;;;;;31.10;100.00;95831.31;5054784;28;20043;-74
2023/06/16 11:16:51;;;;;;;3.28;2.80;;;;;;;31.37;100.00;95829.41;5059565;28;20101;-73
2023/06/16 11:19:17;;;;;;;6.85;2.72;;;;;;;31.27;100.00;95830.22;5056975;28;20064;-73
2023/06/16 11:21:43;;;;;;;2.67;2.53;;;;;;;30.83;100.00;95823.38;5058882;28;20068;-74
2023/06/16 11:24:11;;;;;;;3.08;2.88;;;;;;;30.91;100.00;95827.47;5056141;28;20579;-73
2023/06/16 11:26:36;;;;;;;3.80;3.50;;;;;;;30.99;100.00;95819.59;5055278;28;20385;-72
2023/06/16 11:29:05;;;;;;;2.85;2.65;;;;;;;31.07;100.00;95812.81;5061236;28;20043;-73
2023/06/16 11:31:31;;;;;;;3.15;2.95;;;;;;;31.21;100.00;95817.72;5057668;28;20024;-76
2023/06/16 11:33:57;;;;;;;4.95;2.88;;;;;;;31.51;100.00;95816.91;5055766;28;20059;-73
2023/06/16 11:36:23;;;;;;;3.53;3.00;;;;;;;31.14;100.00;95816.06;5059208;28;20044;-75
2023/06/16 11:38:51;;;;;;;4.47;3.05;;;;;;;30.95;100.00;95820.41;5052999;28;20028;-73
2023/06/16 11:41:19;;;;;;;2.95;2.75;;;;;;;31.13;100.00;95817.16;5059008;28;20021;-74
2023/06/16 11:43:46;;;;;;;2.78;2.67;;;;;;;31.09;100.00;95824.22;5053848;28;20081;-74
2023/06/16 11:46:12;;;;;;;3.50;3.08;;;;;;;31.06;100.00;95822.06;5053273;28;20029;-73
2023/06/16 11:48:37;;;;;;;2.85;2.65;;;;;;;30.83;100.00;95816.00;5051543;28;20029;-74
2023/06/16 11:51:04;;;;;;;3.20;2.90;;;;;;;30.91;100.00;95816.59;5059998;28;20017;-73
2023/06/16 11:53:34;;;;;;;6.28;3.00;;;;;;;30.99;100.00;95816.06;5055284;28;20017;-73
2023/06/16 11:56:00;;;;;;;4.97;3.28;;;;;;;31.33;100.00;95806.59;5046781;28;20028;-73
2023/06/16 11:58:28;;;;;;;2.85;2.60;;;;;;;31.35;100.00;95815.28;5052146;28;20025;-73
2023/06/16 12:00:59;;;;;;;2.83;2.63;;;;;;;30.92;100.00;95810.06;5047150;28;20019;-73
2023/06/16 12:03:28;;;;;;;3.30;3.00;;;;;;;30.94;100.00;95807.91;5054793;28;20029;-74
2023/06/16 12:05:54;;;;;;;3.17;2.63;;;;;;;31.11;100.00;95800.31;5052466;28;20075;-75
2023/06/16 12:08:56;;;;;;;3.15;2.95;;;;;;;31.13;100.00;95808.19;5056867;28;20021;-74
2023/06/16 12:11:28;;;;;;;3.10;2.80;;;;;;;31.24;100.00;95809.03;5013242;28;20057;-75
2023/06/16 12:13:54;;;;;;;2.97;2.78;;;;;;;31.16;98.71;95803.03;5047744;28;20541;-75
2023/06/16 12:16:20;;;;;;;4.20;2.85;;;;;;;30.89;99.99;95803.25;5052503;28;20029;-74
2023/06/16 12:18:49;;;;;;;3.40;2.65;;;;;;;31.01;99.68;95803.00;5058916;28;20053;-75
2023/06/16 12:21:23;;;;;;;2.85;2.60;;;;;;;30.77;99.62;95791.84;5056614;28;20025;-75
2023/06/16 12:23:59;;;;;;;3.73;2.53;;;;;;;30.86;97.95;95795.66;5050013;28;20053;-74
2023/06/16 12:26:29;;;;;;;3.28;2.97;;;;;;;30.98;100.00;95788.06;5051240;28;20025;-75
2023/06/16 12:28:55;;;;;;;3.38;3.17;;;;;;;30.73;99.15;95791.56;5057794;28;20052;-74
2023/06/16 12:31:22;;;;;;;3.15;2.85;;;;;;;30.69;98.89;95783.13;5055647;28;20029;-75
2023/06/16 12:33:54;;;;;;;3.28;3.08;;;;;;;30.68;99.03;95784.22;5055168;28;20108;-74
2023/06/16 12:36:20;;;;;;;2.92;2.65;;;;;;;30.80;100.00;95778.53;5052374;28;20652;-74
2023/06/16 12:38:46;;;;;;;4.40;3.22;;;;;;;31.13;98.24;95795.41;5061265;28;20021;-74
2023/06/16 12:41:12;;;;;;;4.68;3.05;;;;;;;30.55;96.04;95792.84;5054652;28;20413;-75
2023/06/16 12:43:48;;;;;;;3.13;2.90;;;;;;;30.13;98.04;95789.16;5055886;28;20102;-75
2023/06/16 12:46:14;;;;;;;5.03;3.50;;;;;;;30.15;100.00;95776.13;5048876;28;20036;-74
2023/06/16 12:48:39;;;;;;;5.95;2.90;;;;;;;30.26;100.00;95777.00;5049029;28;20028;-75
2023/06/16 12:51:04;;;;;;;2.35;2.15;;;;;;;30.48;95.61;95798.53;5051222;28;20033;-75
2023/06/16 12:53:31;;;;;;;3.08;2.80;;;;;;;30.02;94.70;95785.59;5056516;28;20147;-74
2023/06/16 12:55:56;;;;;;;2.88;2.67;;;;;;;30.06;98.58;95783.16;5050926;28;20021;-75
2023/06/16 12:58:22;;;;;;;2.97;2.60;;;;;;;30.07;98.13;95791.06;5048557;28;20040;-75
2023/06/16 13:00:47;;;;;;;2.85;2.65;;;;;;;29.94;98.04;95780.66;5059954;28;20044;-75
2023/06/16 13:03:13;;;;;;;4.65;2.72;;;;;;;30.02;97.80;95775.56;5053969;28;20025;-75
2023/06/16 13:05:38;;;;;;;3.65;2.90;;;;;;;29.59;99.10;95772.84;5060349;28;20037;-75
2023/06/16 13:08:03;;;;;;;4.55;2.70;;;;;;;29.85;98.89;95777.59;5053192;28;20082;-77
2023/06/16 13:10:29;;;;;;;3.08;2.83;;;;;;;29.76;98.37;95780.00;5056270;28;20033;-71
2023/06/16 13:12:54;;;;;;;9.18;2.80;;;;;;;29.93;96.96;95785.25;5054507;28;20021;-71
2023/06/16 13:15:20;;;;;;;2.53;2.42;;;;;;;29.66;98.66;95774.53;5067968;28;20054;-71
2023/06/16 13:17:46;;;;;;;6.88;2.83;;;;;;;29.42;98.30;95767.59;5068165;28;20085;-71
2023/06/16 13:20:11;;;;;;;3.13;2.83;;;;;;;29.81;97.60;95768.38;5060022;28;20041;-71
2023/06/16 13:22:37;;;;;;;2.72;2.53;;;;;;;29.30;97.81;95769.66;5054167;28;20029;-71
2023/06/16 13:25:02;;;;;;;2.80;2.60;;;;;;;29.00;97.38;95768.31;5058580;28;20029;-71
2023/06/16 13:27:28;;;;;;;2.70;2.50;;;;;;;28.96;99.11;95761.78;5053492;28;20389;-71
2023/06/16 13:29:53;;;;;;;2.72;2.40;;;;;;;28.55;96.36;95767.63;5059211;28;20016;-71
2023/06/16 13:32:19;;;;;;;2.97;2.70;;;;;;;28.38;95.80;95767.69;5056351;28;20024;-71
2023/06/16 13:34:44;;;;;;;2.78;2.50;;;;;;;28.29;97.87;95765.44;5048157;28;20043;-71
2023/06/16 13:37:09;;;;;;;5.00;2.80;;;;;;;28.33;96.92;95763.03;5055361;28;20028;-71
2023/06/16 13:39:35;;;;;;;4.22;2.65;;;;;;;27.59;97.60;95757.75;5055023;28;20048;-71
2023/06/16 13:42:00;;;;;;;3.72;3.15;;;;;;;27.94;100.00;95757.69;5054839;28;20025;-71
2023/06/16 13:44:26;;;;;;;3.20;2.90;;;;;;;28.08;100.00;95761.66;5053811;28;20108;-71
2023/06/16 13:46:51;;;;;;;3.10;2.90;;;;;;;28.23;98.00;95769.16;5053140;28;20087;-71
2023/06/16 13:49:17;;;;;;;3.78;3.17;;;;;;;28.03;98.89;95756.16;5056488;28;20029;-71
2023/06/16 13:51:42;;;;;;;3.35;3.05;;;;;;;27.83;99.28;95748.63;5053551;28;20110;-71
2023/06/16 13:54:10;;;;;;;3.72;3.20;;;;;;;27.63;98.08;95754.56;5053177;28;20032;-71
2023/06/16 13:56:36;;;;;;;3.55;3.03;;;;;;;27.59;98.99;95751.53;5055022;28;20087;-70
2023/06/16 13:59:02;;;;;;;6.40;3.03;;;;;;;27.58;99.28;95739.91;5054451;28;20489;-71
2023/06/16 14:01:28;;;;;;;3.25;2.95;;;;;;;27.55;96.85;95750.41;5059238;28;20026;-71
2023/06/16 14:03:53;;;;;;;3.25;3.05;;;;;;;27.72;97.34;95756.56;5059502;28;20092;-71
2023/06/16 14:06:19;;;;;;;3.58;3.30;;;;;;;27.35;99.16;95742.78;5045631;28;20025;-71
2023/06/16 14:08:44;;;;;;;3.45;3.15;;;;;;;27.22;98.29;95736.66;5059131;28;20016;-71
2023/06/16 14:11:10;;;;;;;7.93;3.50;;;;;;;27.20;97.93;95732.56;5046719;28;20025;-72
2023/06/16 14:13:35;;;;;;;5.38;3.33;;;;;;;27.23;99.11;95724.78;5052914;28;20012;-72
2023/06/16 14:16:00;;;;;;;3.25;3.05;;;;;;;27.19;99.84;95728.22;5044852;28;20013;-73
2023/06/16 14:18:26;;;;;;;3.40;3.10;;;;;;;26.93;99.28;95722.44;5050986;28;20505;-72
2023/06/16 14:20:51;;;;;;;3.70;3.40;;;;;;;27.04;99.16;95729.63;5054970;28;20047;-73
2023/06/16 14:23:17;;;;;;;3.75;3.25;;;;;;;26.96;99.62;95721.94;5035946;28;20029;-73
2023/06/16 14:25:48;;;;;;;5.45;3.38;;;;;;;26.85;99.93;95718.25;5061566;28;20029;-72
2023/06/16 14:28:14;;;;;;;3.50;3.20;;;;;;;26.82;99.90;95727.63;5051458;28;20017;-73
2023/06/16 14:30:39;;;;;;;5.25;3.42;;;;;;;26.77;100.00;95724.03;5053006;28;20076;-72
2023/06/16 14:33:08;;;;;;;4.45;3.50;;;;;;;26.75;100.00;95721.56;5054884;28;20021;-72
2023/06/16 14:35:33;;;;;;;6.60;3.58;;;;;;;26.81;99.66;95715.19;5068435;28;20033;-71
2023/06/16 14:37:59;;;;;;;3.50;3.20;;;;;;;26.76;100.00;95712.41;5061528;28;20499;-71
2023/06/16 14:40:24;;;;;;;4.60;3.67;;;;;;;26.69;100.00;95715.25;5061070;28;20948;-71
2023/06/16 14:42:49;;;;;;;4.75;3.38;;;;;;;26.80;100.00;95718.94;5055999;28;20021;-72
2023/06/16 14:45:15;;;;;;;3.90;3.60;;;;;;;26.62;98.96;95721.88;5052019;28;20307;-72
2023/06/16 14:47:41;;;;;;;4.20;3.50;;;;;;;26.51;99.90;95715.47;5049141;28;20036;-72
2023/06/16 14:50:07;;;;;;;4.65;3.25;;;;;;;26.59;99.37;95720.50;5025865;28;20028;-73
2023/06/16 14:52:32;;;;;;;3.40;3.10;;;;;;;26.58;99.58;95719.66;5042744;28;20024;-72
2023/06/16 14:54:58;;;;;;;3.40;3.10;;;;;;;26.68;100.00;95719.03;5052704;28;20016;-73
2023/06/16 14:57:23;;;;;;;4.97;3.25;;;;;;;26.57;100.00;95714.53;5059610;28;20535;-73
2023/06/16 14:59:48;;;;;;;3.15;2.92;;;;;;;26.44;100.00;95710.25;5038968;28;20397;-73
2023/06/16 15:02:14;;;;;;;3.95;3.50;;;;;;;26.44;100.00;95707.53;5045182;28;20515;-73
2023/06/16 15:04:40;;;;;;;3.55;3.25;;;;;;;26.34;100.00;95716.28;5053430;28;20382;-73
2023/06/16 15:07:05;;;;;;;5.20;3.55;;;;;;;26.51;100.00;95705.50;5050125;28;20028;-73
2023/06/16 15:09:31;;;;;;;4.20;3.35;;;;;;;26.37;100.00;95704.16;5041637;28;20028;-73
2023/06/16 15:11:56;;;;;;;4.00;3.60;;;;;;;26.36;100.00;95702.53;5042666;28;20025;-73
2023/06/16 15:14:21;;;;;;;4.35;3.63;;;;;;;26.33;100.00;95698.44;5052948;28;20190;-73
2023/06/16 15:16:47;;;;;;;6.80;3.83;;;;;;;26.35;100.00;95695.50;5043990;28;20380;-73
2023/06/16 15:19:12;;;;;;;3.53;3.33;;;;;;;26.57;100.00;95692.94;5046048;28;20045;-73
2023/06/16 15:21:38;;;;;;;3.65;3.35;;;;;;;26.65;100.00;95697.09;5051715;28;20112;-73
2023/06/16 15:24:05;;;;;;;7.03;3.63;;;;;;;26.56;100.00;95688.59;5048944;28;20480;-77
2023/06/16 15:26:33;;;;;;;4.07;3.70;;;;;;;26.35;100.00;95695.50;5044558;28;20619;-75
2023/06/16 15:28:58;;;;;;;3.63;3.35;;;;;;;26.43;100.00;95695.13;5052356;28;20024;-76
2023/06/16 15:31:24;;;;;;;3.47;3.20;;;;;;;26.36;100.00;95692.56;5045618;28;20882;-76
2023/06/16 15:33:50;;;;;;;4.10;3.75;;;;;;;26.34;100.00;95683.06;5063712;28;20025;-76
2023/06/16 15:36:15;;;;;;;3.58;3.28;;;;;;;26.41;100.00;95686.41;5059588;28;20024;-77
2023/06/16 15:38:41;;;;;;;3.78;3.47;;;;;;;26.46;100.00;95690.03;5060812;28;20029;-76
2023/06/16 15:41:07;;;;;;;4.60;3.60;;;;;;;26.16;100.00;95682.16;5054574;28;20035;-76
2023/06/16 15:43:32;;;;;;;4.13;3.67;;;;;;;26.03;100.00;95684.13;5066775;28;20025;-77
2023/06/16 15:45:59;;;;;;;3.55;3.35;;;;;;;25.94;100.00;95682.03;5058746;28;20010;-77
2023/06/16 15:48:25;;;;;;;8.20;4.15;;;;;;;25.87;100.00;95674.09;5058599;28;20021;-77
2023/06/16 15:50:51;;;;;;;9.77;5.53;;;;;;;26.00;100.00;95681.06;5070677;28;20028;-77
2023/06/16 15:53:16;;;;;;;7.78;5.25;;;;;;;25.95;100.00;95684.47;5058068;28;20013;-77
2023/06/16 15:55:42;;;;;;;21.13;7.63;;;;;;;25.97;100.00;95679.66;5057915;28;20132;-77
2023/06/16 15:58:07;;;;;;;4.05;3.75;;;;;;;25.96;100.00;95671.81;5057426;28;20435;-77
2023/06/16 16:00:33;;;;;;;3.95;3.42;;;;;;;26.09;100.00;95670.72;5057767;28;20589;-76
2023/06/16 16:02:59;;;;;;;4.57;3.80;;;;;;;25.98;100.00;95664.31;5045680;28;20028;-76
2023/06/16 16:05:25;;;;;;;3.90;3.60;;;;;;;25.92;100.00;95674.19;5066231;28;20029;-76
2023/06/16 16:07:50;;;;;;;4.07;3.67;;;;;;;25.93;100.00;95667.72;5055786;28;20029;-77
2023/06/16 16:10:16;;;;;;;4.85;3.92;;;;;;;25.85;100.00;95666.22;5052723;28;20032;-76
2023/06/16 16:12:41;;;;;;;5.07;3.55;;;;;;;25.78;100.00;95662.84;5068481;28;20020;-77
2023/06/16 16:15:08;;;;;;;4.10;3.70;;;;;;;25.82;100.00;95663.22;5064593;28;20388;-76
2023/06/16 16:17:34;;;;;;;4.05;3.72;;;;;;;25.78;100.00;95659.34;5046820;28;20043;-76
2023/06/16 16:20:00;;;;;;;5.18;3.60;;;;;;;25.72;100.00;95655.72;5046230;28;20041;-77
2023/06/16 16:22:26;;;;;;;3.40;3.20;;;;;;;25.70;100.00;95668.63;5059190;28;20486;-77
2023/06/16 16:24:52;;;;;;;4.93;3.80;;;;;;;25.85;100.00;95655.44;5056590;28;20013;-77
2023/06/16 16:27:18;;;;;;;4.53;3.42;;;;;;;25.73;100.00;95654.66;5055254;28;20120;-77
2023/06/16 16:29:44;;;;;;;4.72;3.63;;;;;;;25.62;100.00;95661.72;5055263;28;20013;-77
2023/06/16 16:32:10;;;;;;;9.68;3.65;;;;;;;25.59;100.00;95662.22;5057464;28;20026;-76
2023/06/16 16:34:35;;;;;;;5.22;3.80;;;;;;;25.62;100.00;95659.03;5034432;28;20054;-77
2023/06/16 16:37:01;;;;;;;7.28;4.05;;;;;;;25.60;100.00;95639.59;5047231;28;20018;-77
2023/06/16 16:39:30;;;;;;;4.30;3.92;;;;;;;25.46;100.00;95647.91;5053111;28;20017;-76
2023/06/16 16:41:59;;;;;;;4.10;3.80;;;;;;;25.45;100.00;95645.47;5040282;28;20161;-76
2023/06/16 16:44:27;;;;;;;3.97;3.67;;;;;;;25.34;100.00;95635.50;5057249;28;20016;-76
2023/06/16 16:46:53;;;;;;;5.38;4.88;;;;;;;25.22;100.00;95655.22;5038007;28;20108;-77
2023/06/16 16:49:19;;;;;;;7.07;4.88;;;;;;;25.15;100.00;95647.25;5055831;28;20375;-76
2023/06/16 16:51:45;;;;;;;5.05;4.38;;;;;;;25.24;100.00;95630.72;5067019;28;20028;-76
2023/06/16 16:54:10;;;;;;;5.78;5.38;;;;;;;25.29;100.00;95631.66;5055639;28;20623;-76
2023/06/16 16:56:36;;;;;;;4.55;4.15;;;;;;;25.28;100.00;95626.50;5051244;28;20029;-76
2023/06/16 16:59:01;;;;;;;4.13;3.85;;;;;;;25.14;100.00;95605.22;5045745;28;20060;-76
2023/06/16 17:01:27;;;;;;;4.93;4.55;;;;;;;25.10;100.00;95585.22;5054979;28;20454;-76
2023/06/16 17:03:52;;;;;;;5.38;4.05;;;;;;;25.02;100.00;95497.53;5055874;28;20469;-76
2023/06/16 17:06:17;;;;;;;7.72;5.95;;;;;;;24.99;100.00;95507.94;5056224;28;20532;-76
2023/06/16 17:08:43;;;;;;;4.57;4.18;;;;;;;24.91;100.00;95505.63;5062315;28;20029;-77
2023/06/16 17:11:08;;;;;;;4.40;3.88;;;;;;;24.93;100.00;95517.78;5061335;28;20056;-76
2023/06/16 17:13:33;;;;;;;4.43;3.88;;;;;;;24.75;100.00;95541.09;5054754;28;20448;-76
2023/06/16 17:16:00;;;;;;;5.88;4.20;;;;;;;24.63;100.00;95539.44;5047019;28;20013;-76
2023/06/16 17:18:25;;;;;;;4.35;3.97;;;;;;;24.68;100.00;95453.47;5047915;28;20104;-76
2023/06/16 17:20:51;;;;;;;5.63;4.35;;;;;;;24.65;100.00;94697.78;5054025;28;20025;-76
2023/06/16 17:23:17;;;;;;;9.85;4.80;;;;;;;24.55;100.00;94430.31;5030537;28;20030;-77
2023/06/16 17:25:43;;;;;;;6.82;4.93;;;;;;;24.37;100.00;94390.41;5049437;28;20468;-76
2023/06/16 17:28:08;;;;;;;4.30;3.83;;;;;;;24.22;100.00;94365.09;5057676;28;20037;-77
2023/06/16 17:30:37;;;;;;;6.18;4.30;;;;;;;24.10;100.00;94324.13;5065829;28;20029;-77
2023/06/16 17:33:02;;;;;;;9.63;3.85;;;;;;;24.07;100.00;94222.53;5041816;28;20104;-77
2023/06/16 17:35:29;;;;;;;4.40;4.00;;;;;;;23.97;100.00;94330.75;5028149;28;20049;-77
2023/06/16 17:37:55;;;;;;;5.47;4.25;;;;;;;23.89;100.00;94635.72;5052736;28;20017;-77
2023/06/16 17:40:21;;;;;;;7.18;4.10;;;;;;;23.89;100.00;94620.41;5063844;28;20040;-77
2023/06/16 17:42:47;;;;;;;4.85;4.40;;;;;;;23.80;100.00;94602.31;5054595;28;20528;-77
2023/06/16 17:45:13;;;;;;;4.45;4.13;;;;;;;23.73;100.00;94638.22;5060360;28;20048;-76
2023/06/16 17:47:39;;;;;;;4.95;4.45;;;;;;;23.82;100.00;94511.50;5058511;28;20021;-77
2023/06/16 17:50:05;;;;;;;4.30;3.90;;;;;;;23.58;100.00;94178.75;5053635;28;20436;-77
2023/06/16 17:52:30;;;;;;;5.65;4.65;;;;;;;23.42;100.00;94330.91;5059644;28;20020;-76
2023/06/16 17:54:56;;;;;;;5.35;4.38;;;;;;;23.42;100.00;94433.75;5053535;28;20040;-76
2023/06/16 17:57:21;;;;;;;4.20;3.90;;;;;;;23.38;100.00;94475.63;5066220;28;20016;-76
2023/06/16 17:59:48;;;;;;;4.95;4.43;;;;;;;23.36;100.00;94101.03;5056299;28;20089;-76
2023/06/16 18:02:13;;;;;;;4.60;3.85;;;;;;;23.18;100.00;94078.91;5052649;28;20029;-77
2023/06/16 18:04:40;;;;;;;4.03;3.72;;;;;;;23.02;100.00;94083.38;5051232;28;20057;-76
2023/06/16 18:07:06;;;;;;;4.47;4.18;;;;;;;22.88;100.00;94102.66;5051011;28;20017;-76
2023/06/16 18:09:31;;;;;;;5.45;3.95;;;;;;;22.81;100.00;94111.97;5042559;28;20047;-77
2023/06/16 18:11:57;;;;;;;13.13;11.77;;;;;;;22.70;100.00;94060.94;5054549;28;20014;-77
2023/06/16 18:14:22;;;;;;;8.23;6.18;;;;;;;22.70;100.00;94082.38;5054278;28;20100;-77
2023/06/16 18:16:48;;;;;;;4.60;4.30;;;;;;;22.46;100.00;94049.75;5064915;28;20017;-77
2023/06/16 18:19:13;;;;;;;8.35;4.38;;;;;;;22.38;100.00;94085.06;5040316;28;20049;-77
2023/06/16 18:21:39;;;;;;;5.60;4.30;;;;;;;22.35;100.00;94043.50;5059012;28;20871;-77
2023/06/16 18:24:04;;;;;;;4.53;4.22;;;;;;;22.31;100.00;94023.63;5041187;28;20030;-77
2023/06/16 18:26:29;;;;;;;6.13;4.60;;;;;;;22.24;100.00;94047.16;5054530;28;20025;-76
2023/06/16 18:28:55;;;;;;;4.55;4.15;;;;;;;22.15;100.00;94047.63;5053840;28;20492;-77
2023/06/16 18:31:21;;;;;;;5.05;4.40;;;;;;;21.99;100.00;94041.31;5063461;28;20079;-77
2023/06/16 18:33:46;;;;;;;7.50;6.80;;;;;;;21.92;100.00;94035.34;5043899;28;20156;-77
2023/06/16 18:36:11;;;;;;;16.15;6.88;;;;;;;21.95;100.00;94067.00;5040493;28;20017;-77
2023/06/16 18:38:45;;;;;;;7.05;6.28;;;;;;;21.97;100.00;94048.78;5034587;28;20030;-77
2023/06/16 18:41:11;;;;;;;4.90;4.50;;;;;;;21.95;100.00;94050.91;5049383;28;20392;-77
2023/06/16 18:43:37;;;;;;;8.45;4.25;;;;;;;21.81;100.00;94058.56;5052812;28;20021;-77
2023/06/16 18:46:02;;;;;;;4.60;4.30;;;;;;;21.70;100.00;94046.94;5042019;28;20024;-77
2023/06/16 18:48:28;;;;;;;4.95;4.43;;;;;;;21.67;100.00;94034.06;5035906;28;20028;-77
2023/06/16 18:50:55;;;;;;;4.00;3.67;;;;;;;21.58;100.00;94052.41;5053701;28;20025;-76
2023/06/16 18:53:22;;;;;;;5.88;4.22;;;;;;;21.47;100.00;94075.56;5064084;28;20457;-75
2023/06/16 18:55:49;;;;;;;8.45;4.78;;;;;;;21.58;100.00;94107.84;5058579;28;20013;-76
2023/06/16 18:58:16;;;;;;;4.40;4.03;;;;;;;21.57;100.00;94084.78;5054012;28;20386;-76
2023/06/16 19:00:41;;;;;;;4.35;4.03;;;;;;;21.58;100.00;94102.47;5039233;28;20029;-76
2023/06/16 19:03:07;;;;;;;5.93;4.47;;;;;;;21.53;100.00;94079.13;5024923;28;20107;-77
2023/06/16 19:05:32;;;;;;;6.05;4.45;;;;;;;21.41;100.00;94108.69;5056539;28;20063;-76
2023/06/16 19:07:58;;;;;;;5.53;4.95;;;;;;;21.33;100.00;94117.97;5068919;28;20029;-76
2023/06/16 19:10:23;;;;;;;6.22;4.90;;;;;;;21.30;100.00;94120.31;5056769;28;20057;-75
2023/06/16 19:12:52;;;;;;;5.88;5.38;;;;;;;21.18;100.00;94115.91;5057163;28;20457;-73
2023/06/16 19:15:20;;;;;;;9.88;8.88;;;;;;;21.04;100.00;94104.75;5039459;28;20123;-74
2023/06/16 19:17:46;;;;;;;8.40;6.00;;;;;;;20.93;100.00;94102.19;5056699;28;20100;-77
2023/06/16 19:20:14;;;;;;;4.70;4.38;;;;;;;20.82;100.00;94072.59;5042570;28;20045;-77
2023/06/16 19:22:40;;;;;;;16.95;13.75;;;;;;;20.75;100.00;94086.09;5046389;28;20388;-76
2023/06/16 19:25:06;;;;;;;19.27;15.18;;;;;;;20.61;100.00;94100.88;5055285;28;20021;-76
2023/06/16 19:27:31;;;;;;;30.90;25.45;;;;;;;20.44;100.00;94104.34;5059279;28;20048;-76
2023/06/16 19:29:57;;;;;;;8.15;6.90;;;;;;;20.34;100.00;94122.91;5056986;28;20036;-76
2023/06/16 19:32:22;;;;;;;5.03;4.40;;;;;;;20.28;100.00;94143.38;5038937;28;20485;-77
2023/06/16 19:34:48;;;;;;;4.65;4.25;;;;;;;20.22;100.00;94124.81;5056603;28;20025;-77
2023/06/16 19:37:13;;;;;;;4.70;4.30;;;;;;;20.20;100.00;94109.03;5056722;28;20021;-77
2023/06/16 19:39:39;;;;;;;4.70;4.30;;;;;;;20.18;100.00;94089.75;5038949;28;20071;-77
2023/06/16 19:42:05;;;;;;;11.43;4.75;;;;;;;20.11;100.00;94113.16;5056649;28;20109;-77
2023/06/16 19:44:30;;;;;;;9.35;4.70;;;;;;;20.06;100.00;94121.09;5056578;28;20031;-77
2023/06/16 19:46:56;;;;;;;13.75;4.65;;;;;;;19.97;100.00;94083.25;5048856;28;20022;-77
2023/06/16 19:49:21;;;;;;;6.68;4.13;;;;;;;19.85;100.00;94118.00;5050602;28;20543;-77
2023/06/16 19:51:49;;;;;;;4.82;4.38;;;;;;;19.78;100.00;94114.66;5055282;28;20243;-76
2023/06/16 19:54:14;;;;;;;6.07;4.45;;;;;;;19.74;100.00;94107.13;5056138;28;20036;-76
2023/06/16 19:56:40;;;;;;;6.32;4.07;;;;;;;19.70;100.00;94131.88;5056162;28;20096;-77
2023/06/16 19:59:06;;;;;;;4.88;4.47;;;;;;;19.66;100.00;94133.38;5054347;28;20108;-76
2023/06/16 20:01:32;;;;;;;5.97;4.28;;;;;;;19.63;100.00;94105.31;5056198;28;20167;-77
2023/06/16 20:03:58;;;;;;;6.03;4.03;;;;;;;19.60;100.00;94113.81;5055897;28;20036;-76
2023/06/16 20:06:23;;;;;;;4.35;4.05;;;;;;;19.58;100.00;94135.38;5055920;28;20045;-77
2023/06/16 20:08:49;;;;;;;4.70;4.30;;;;;;;19.56;100.00;94158.81;5055881;28;20029;-77
2023/06/16 20:11:15;;;;;;;4.75;4.38;;;;;;;19.46;100.00;94159.44;5067478;28;20100;-77
2023/06/16 20:13:43;;;;;;;6.13;4.97;;;;;;;19.40;100.00;94116.84;5063987;28;20047;-77
2023/06/16 20:16:11;;;;;;;6.63;4.63;;;;;;;19.40;100.00;94083.00;5062337;28;20029;-77
2023/06/16 20:18:36;;;;;;;4.70;4.30;;;;;;;19.40;100.00;93983.44;5050167;28;20037;-77
2023/06/16 20:21:02;;;;;;;5.25;4.75;;;;;;;19.32;100.00;93956.13;5046409;28;20027;-77
2023/06/16 20:23:27;;;;;;;6.25;4.50;;;;;;;19.16;100.00;94012.88;5054876;28;20052;-77
2023/06/16 20:25:53;;;;;;;6.97;4.75;;;;;;;19.02;100.00;94028.34;5057227;28;20049;-77
2023/06/16 20:28:18;;;;;;;4.65;4.25;;;;;;;18.98;100.00;93997.84;5055667;28;20030;-77
2023/06/16 20:30:44;;;;;;;4.82;4.43;;;;;;;18.92;100.00;93990.78;5047621;28;20029;-77
2023/06/16 20:33:09;;;;;;;4.65;4.00;;;;;;;18.89;100.00;94040.84;5043631;28;20028;-77
2023/06/16 20:35:35;;;;;;;4.47;4.18;;;;;;;18.81;100.00;94062.53;5045279;28;20017;-77
2023/06/16 20:38:02;;;;;;;4.18;3.75;;;;;;;18.78;100.00;94087.00;5035394;28;20115;-77
2023/06/16 20:40:28;;;;;;;4.82;4.20;;;;;;;18.68;100.00;94060.94;5055552;28;20025;-77
2023/06/16 20:42:55;;;;;;;5.47;4.07;;;;;;;18.58;100.00;94069.50;5048239;28;20021;-77
2023/06/16 20:45:22;;;;;;;8.23;4.85;;;;;;;18.52;100.00;94078.44;5045234;28;20362;-77
2023/06/16 20:47:51;;;;;;;9.27;4.43;;;;;;;18.50;100.00;94026.41;5071941;28;20057;-77
2023/06/16 20:50:22;;;;;;;4.72;4.18;;;;;;;18.42;100.00;94064.88;5038748;28;20044;-77
2023/06/16 20:52:51;;;;;;;7.68;4.65;;;;;;;18.36;100.00;94047.97;5050592;28;20032;-77
2023/06/16 20:55:17;;;;;;;7.88;4.68;;;;;;;18.28;100.00;94019.00;5046812;28;20028;-77
2023/06/16 20:57:43;;;;;;;7.90;5.32;;;;;;;18.24;100.00;93970.72;5060530;28;20024;-77
2023/06/16 21:00:09;;;;;;;5.22;4.72;;;;;;;18.12;100.00;93980.56;5043359;28;20025;-77
2023/06/16 21:02:37;;;;;;;7.50;4.32;;;;;;;18.09;100.00;94020.97;5054613;28;20507;-77
2023/06/16 21:05:09;;;;;;;8.57;4.45;;;;;;;18.13;100.00;94059.41;5054853;28;20096;-77
2023/06/16 21:07:36;;;;;;;7.95;4.63;;;;;;;18.07;100.00;94037.16;5055284;28;20128;-77
2023/06/16 21:10:05;;;;;;;13.27;5.38;;;;;;;18.06;100.00;94008.91;5057009;28;20397;-77
2023/06/16 21:12:31;;;;;;;10.90;5.25;;;;;;;18.00;100.00;94015.91;5054298;28;20146;-77
2023/06/16 21:14:56;;;;;;;8.85;5.43;;;;;;;17.97;100.00;94015.59;5053725;28;20044;-76
2023/06/16 21:17:21;;;;;;;8.18;4.80;;;;;;;17.91;100.00;93985.38;5049577;28;20021;-76
2023/06/16 21:19:47;;;;;;;7.50;5.30;;;;;;;17.88;100.00;93977.84;5055195;28;20555;-76
2023/06/16 21:22:14;;;;;;;4.55;4.25;;;;;;;17.75;100.00;93998.28;5047326;28;20041;-76
2023/06/16 21:24:40;;;;;;;6.00;4.68;;;;;;;17.64;100.00;94036.34;5052617;28;20028;-76
2023/06/16 21:27:05;;;;;;;8.45;4.45;;;;;;;17.61;100.00;94063.41;5035767;28;20481;-76
2023/06/16 21:29:30;;;;;;;5.90;4.50;;;;;;;17.58;100.00;94022.09;5051701;28;20501;-75
2023/06/16 21:31:56;;;;;;;6.90;4.65;;;;;;;17.55;100.00;93993.28;5058280;28;20048;-76
2023/06/16 21:34:21;;;;;;;4.70;4.30;;;;;;;17.57;100.00;93982.38;5064837;28;20056;-76
2023/06/16 21:36:47;;;;;;;4.72;4.13;;;;;;;17.49;100.00;93993.38;5054667;28;20036;-75
2023/06/16 21:39:12;;;;;;;5.97;4.55;;;;;;;17.45;100.00;94007.13;5059827;28;20028;-76
2023/06/16 21:41:38;;;;;;;6.03;4.38;;;;;;;17.41;100.00;94008.63;5037365;28;20017;-76